sensor_id;sensor_type;location;lat;lon;timestamp;temperature;humidity
25963;DHT22;13760;52.588;13.406;2022-11-18T00:00:47;2.00;99.90
25963;DHT22;13760;52.588;13.406;2022-11-18T00:03:13;2.00;99.90
25963;DHT22;13760;52.588;13.406;2022-11-18T00:05:38;2.00;99.90
25963;DHT22;13760;52.588;13.406;2022-11-18T00:08:04;2.00;99.90
25963;DHT22;13760;52.588;13.406;2022-11-18T00:10:29;2.00;99.90
25963;DHT22;13760;52.588;13.406;2022-11-18T00:12:56;2.00;99.90
25963;DHT22;13760;52.588;13.406;2022-11-18T00:15:40;2.00;99.90
25963;DHT22;13760;52.588;13.406;2022-11-18T00:18:05;2.00;99.90
25963;DHT22;13760;52.588;13.406;2022-11-18T00:20:32;2.00;99.90
25963;DHT22;13760;52.588;13.406;2022-11-18T00:22:58;2.00;99.90
25963;DHT22;13760;52.588;13.406;2022-11-18T00:25:24;2.00;99.90
25963;DHT22;13760;52.588;13.406;2022-11-18T00:27:49;2.00;99.90
25963;DHT22;13760;52.588;13.406;2022-11-18T00:30:15;1.90;99.90
25963;DHT22;13760;52.588;13.406;2022-11-18T00:32:41;1.90;99.90
25963;DHT22;13760;52.588;13.406;2022-11-18T00:35:07;2.00;99.90
25963;DHT22;13760;52.588;13.406;2022-11-18T00:37:32;2.00;99.90
25963;DHT22;13760;52.588;13.406;2022-11-18T00:39:58;1.90;99.90
25963;DHT22;13760;52.588;13.406;2022-11-18T00:42:24;1.90;99.90
25963;DHT22;13760;52.588;13.406;2022-11-18T00:45:08;1.90;99.90
25963;DHT22;13760;52.588;13.406;2022-11-18T00:47:34;1.90;99.90
25963;DHT22;13760;52.588;13.406;2022-11-18T00:49:59;1.90;99.90
25963;DHT22;13760;52.588;13.406;2022-11-18T00:52:25;1.90;99.90
25963;DHT22;13760;52.588;13.406;2022-11-18T00:54:50;1.90;99.90
25963;DHT22;13760;52.588;13.406;2022-11-18T00:57:16;1.90;99.90
25963;DHT22;13760;52.588;13.406;2022-11-18T00:59:41;1.90;99.90
25963;DHT22;13760;52.588;13.406;2022-11-18T01:02:07;1.90;99.90
25963;DHT22;13760;52.588;13.406;2022-11-18T01:04:32;1.90;99.90
25963;DHT22;13760;52.588;13.406;2022-11-18T01:06:57;1.80;99.90
25963;DHT22;13760;52.588;13.406;2022-11-18T01:09:23;1.80;99.90
25963;DHT22;13760;52.588;13.406;2022-11-18T01:11:48;1.80;99.90
25963;DHT22;13760;52.588;13.406;2022-11-18T01:14:32;1.70;99.90
25963;DHT22;13760;52.588;13.406;2022-11-18T01:16:58;1.70;99.90
25963;DHT22;13760;52.588;13.406;2022-11-18T01:19:24;1.70;99.90
25963;DHT22;13760;52.588;13.406;2022-11-18T01:21:50;1.70;99.90
25963;DHT22;13760;52.588;13.406;2022-11-18T01:24:15;1.70;99.90
25963;DHT22;13760;52.588;13.406;2022-11-18T01:26:41;1.60;99.90
25963;DHT22;13760;52.588;13.406;2022-11-18T01:29:07;1.60;99.90
25963;DHT22;13760;52.588;13.406;2022-11-18T01:31:33;1.60;99.90
25963;DHT22;13760;52.588;13.406;2022-11-18T01:33:58;1.60;99.90
25963;DHT22;13760;52.588;13.406;2022-11-18T01:36:25;1.60;99.90
25963;DHT22;13760;52.588;13.406;2022-11-18T01:38:53;1.60;99.90
25963;DHT22;13760;52.588;13.406;2022-11-18T01:41:20;1.60;99.90
25963;DHT22;13760;52.588;13.406;2022-11-18T01:46:39;1.50;99.90
25963;DHT22;13760;52.588;13.406;2022-11-18T01:49:07;1.50;99.90
25963;DHT22;13760;52.588;13.406;2022-11-18T01:51:40;1.50;99.90
25963;DHT22;13760;52.588;13.406;2022-11-18T01:54:12;1.50;99.90
25963;DHT22;13760;52.588;13.406;2022-11-18T01:56:42;1.50;99.90
25963;DHT22;13760;52.588;13.406;2022-11-18T01:59:14;1.40;99.90
25963;DHT22;13760;52.588;13.406;2022-11-18T02:01:42;1.40;99.90
25963;DHT22;13760;52.588;13.406;2022-11-18T02:04:08;1.40;99.90
25963;DHT22;13760;52.588;13.406;2022-11-18T02:06:35;1.40;99.90
25963;DHT22;13760;52.588;13.406;2022-11-18T02:09:01;1.40;99.90
25963;DHT22;13760;52.588;13.406;2022-11-18T02:11:27;1.40;99.90
25963;DHT22;13760;52.588;13.406;2022-11-18T02:14:11;1.40;99.90
25963;DHT22;13760;52.588;13.406;2022-11-18T02:20:00;1.30;99.90
25963;DHT22;13760;52.588;13.406;2022-11-18T02:22:57;1.30;99.90
25963;DHT22;13760;52.588;13.406;2022-11-18T02:28:56;1.30;99.90
25963;DHT22;13760;52.588;13.406;2022-11-18T02:31:29;1.30;99.90
25963;DHT22;13760;52.588;13.406;2022-11-18T02:34:12;1.30;99.90
25963;DHT22;13760;52.588;13.406;2022-11-18T02:36:55;1.30;99.90
25963;DHT22;13760;52.588;13.406;2022-11-18T02:43:20;1.30;99.90
25963;DHT22;13760;52.588;13.406;2022-11-18T02:45:55;1.30;99.90
25963;DHT22;13760;52.588;13.406;2022-11-18T02:48:38;1.30;99.90
25963;DHT22;13760;52.588;13.406;2022-11-18T02:51:10;1.30;99.90
25963;DHT22;13760;52.588;13.406;2022-11-18T02:53:37;1.20;99.90
25963;DHT22;13760;52.588;13.406;2022-11-18T02:56:05;1.20;99.90
25963;DHT22;13760;52.588;13.406;2022-11-18T02:58:31;1.20;99.90
25963;DHT22;13760;52.588;13.406;2022-11-18T03:00:59;1.20;99.90
25963;DHT22;13760;52.588;13.406;2022-11-18T03:03:31;1.20;99.90
25963;DHT22;13760;52.588;13.406;2022-11-18T03:11:32;1.10;99.90
25963;DHT22;13760;52.588;13.406;2022-11-18T03:14:08;1.10;99.90
25963;DHT22;13760;52.588;13.406;2022-11-18T03:16:55;1.20;99.90
25963;DHT22;13760;52.588;13.406;2022-11-18T03:24:41;1.20;99.90
25963;DHT22;13760;52.588;13.406;2022-11-18T03:27:18;1.10;99.90
25963;DHT22;13760;52.588;13.406;2022-11-18T03:29:48;1.10;99.90
25963;DHT22;13760;52.588;13.406;2022-11-18T03:32:21;1.10;99.90
25963;DHT22;13760;52.588;13.406;2022-11-18T03:34:56;1.00;99.90
25963;DHT22;13760;52.588;13.406;2022-11-18T03:37:25;1.00;99.90
25963;DHT22;13760;52.588;13.406;2022-11-18T03:39:59;1.00;99.90
25963;DHT22;13760;52.588;13.406;2022-11-18T03:42:44;1.00;99.90
25963;DHT22;13760;52.588;13.406;2022-11-18T03:45:15;0.90;99.90
25963;DHT22;13760;52.588;13.406;2022-11-18T03:47:50;0.90;99.90
25963;DHT22;13760;52.588;13.406;2022-11-18T03:50:22;0.90;99.90
25963;DHT22;13760;52.588;13.406;2022-11-18T03:52:49;0.90;99.90
25963;DHT22;13760;52.588;13.406;2022-11-18T03:55:19;0.80;99.90
25963;DHT22;13760;52.588;13.406;2022-11-18T03:58:20;0.80;99.90
25963;DHT22;13760;52.588;13.406;2022-11-18T04:00:55;0.80;99.90
25963;DHT22;13760;52.588;13.406;2022-11-18T04:03:22;0.80;99.90
25963;DHT22;13760;52.588;13.406;2022-11-18T04:05:54;0.70;99.90
25963;DHT22;13760;52.588;13.406;2022-11-18T04:08:24;0.70;99.90
25963;DHT22;13760;52.588;13.406;2022-11-18T04:11:02;0.70;99.90
25963;DHT22;13760;52.588;13.406;2022-11-18T04:13:33;0.70;99.90
25963;DHT22;13760;52.588;13.406;2022-11-18T04:15:59;0.70;99.90
25963;DHT22;13760;52.588;13.406;2022-11-18T04:18:25;0.60;99.90
25963;DHT22;13760;52.588;13.406;2022-11-18T04:20:51;0.60;99.90
25963;DHT22;13760;52.588;13.406;2022-11-18T04:23:17;0.60;99.90
25963;DHT22;13760;52.588;13.406;2022-11-18T04:25:42;0.60;99.90
25963;DHT22;13760;52.588;13.406;2022-11-18T04:28:08;0.60;99.90
25963;DHT22;13760;52.588;13.406;2022-11-18T04:30:33;0.60;99.90
25963;DHT22;13760;52.588;13.406;2022-11-18T04:32:59;0.60;99.90
25963;DHT22;13760;52.588;13.406;2022-11-18T04:35:24;0.60;99.90
25963;DHT22;13760;52.588;13.406;2022-11-18T04:37:50;0.60;99.90
25963;DHT22;13760;52.588;13.406;2022-11-18T04:40:16;0.50;99.90
25963;DHT22;13760;52.588;13.406;2022-11-18T04:42:41;0.60;99.90
25963;DHT22;13760;52.588;13.406;2022-11-18T04:45:08;0.50;99.90
25963;DHT22;13760;52.588;13.406;2022-11-18T04:47:34;0.60;99.90
25963;DHT22;13760;52.588;13.406;2022-11-18T04:49:59;0.50;99.90
25963;DHT22;13760;52.588;13.406;2022-11-18T04:52:25;0.50;99.90
25963;DHT22;13760;52.588;13.406;2022-11-18T04:54:50;0.60;99.90
25963;DHT22;13760;52.588;13.406;2022-11-18T04:57:16;0.50;99.90
25963;DHT22;13760;52.588;13.406;2022-11-18T04:59:41;0.50;99.90
25963;DHT22;13760;52.588;13.406;2022-11-18T05:02:07;0.50;99.90
25963;DHT22;13760;52.588;13.406;2022-11-18T05:04:33;0.50;99.90
25963;DHT22;13760;52.588;13.406;2022-11-18T05:07:00;0.50;99.90
25963;DHT22;13760;52.588;13.406;2022-11-18T05:09:26;0.50;99.90
25963;DHT22;13760;52.588;13.406;2022-11-18T05:11:52;0.50;99.90
25963;DHT22;13760;52.588;13.406;2022-11-18T05:14:36;0.50;99.90
25963;DHT22;13760;52.588;13.406;2022-11-18T05:17:04;0.50;99.90
25963;DHT22;13760;52.588;13.406;2022-11-18T05:19:30;0.50;99.90
25963;DHT22;13760;52.588;13.406;2022-11-18T05:21:56;0.50;99.90
25963;DHT22;13760;52.588;13.406;2022-11-18T05:24:21;0.50;99.90
25963;DHT22;13760;52.588;13.406;2022-11-18T05:26:53;0.50;99.90
25963;DHT22;13760;52.588;13.406;2022-11-18T05:29:28;0.50;99.90
25963;DHT22;13760;52.588;13.406;2022-11-18T05:32:00;0.50;99.90
25963;DHT22;13760;52.588;13.406;2022-11-18T05:34:26;0.50;99.90
25963;DHT22;13760;52.588;13.406;2022-11-18T05:36:51;0.50;99.90
25963;DHT22;13760;52.588;13.406;2022-11-18T05:39:17;0.50;99.90
25963;DHT22;13760;52.588;13.406;2022-11-18T05:41:42;0.50;99.90
25963;DHT22;13760;52.588;13.406;2022-11-18T05:44:26;0.40;99.90
25963;DHT22;13760;52.588;13.406;2022-11-18T05:46:52;0.40;99.90
25963;DHT22;13760;52.588;13.406;2022-11-18T05:49:18;0.40;99.90
25963;DHT22;13760;52.588;13.406;2022-11-18T05:51:44;0.40;99.90
25963;DHT22;13760;52.588;13.406;2022-11-18T05:54:11;0.40;99.90
25963;DHT22;13760;52.588;13.406;2022-11-18T05:56:41;0.40;99.90
25963;DHT22;13760;52.588;13.406;2022-11-18T05:59:09;0.40;99.90
25963;DHT22;13760;52.588;13.406;2022-11-18T06:01:45;0.40;99.90
25963;DHT22;13760;52.588;13.406;2022-11-18T06:04:23;0.40;99.90
25963;DHT22;13760;52.588;13.406;2022-11-18T06:06:53;0.40;99.90
25963;DHT22;13760;52.588;13.406;2022-11-18T06:09:23;0.30;99.90
25963;DHT22;13760;52.588;13.406;2022-11-18T06:11:52;0.40;99.90
25963;DHT22;13760;52.588;13.406;2022-11-18T06:14:36;0.40;99.90
25963;DHT22;13760;52.588;13.406;2022-11-18T06:17:07;0.40;99.90
25963;DHT22;13760;52.588;13.406;2022-11-18T06:19:34;0.30;99.90
25963;DHT22;13760;52.588;13.406;2022-11-18T06:21:59;0.30;99.90
25963;DHT22;13760;52.588;13.406;2022-11-18T06:24:25;0.30;99.90
25963;DHT22;13760;52.588;13.406;2022-11-18T06:26:51;0.30;99.90
25963;DHT22;13760;52.588;13.406;2022-11-18T06:29:18;0.30;99.90
25963;DHT22;13760;52.588;13.406;2022-11-18T06:31:44;0.30;99.90
25963;DHT22;13760;52.588;13.406;2022-11-18T06:34:10;0.30;99.90
25963;DHT22;13760;52.588;13.406;2022-11-18T06:36:36;0.30;99.90
25963;DHT22;13760;52.588;13.406;2022-11-18T06:42:26;0.30;99.90
25963;DHT22;13760;52.588;13.406;2022-11-18T06:45:11;0.30;99.90
25963;DHT22;13760;52.588;13.406;2022-11-18T06:47:37;0.30;99.90
25963;DHT22;13760;52.588;13.406;2022-11-18T06:50:04;0.30;99.90
25963;DHT22;13760;52.588;13.406;2022-11-18T06:52:29;0.30;99.90
25963;DHT22;13760;52.588;13.406;2022-11-18T06:54:55;0.20;99.90
25963;DHT22;13760;52.588;13.406;2022-11-18T06:57:20;0.20;99.90
25963;DHT22;13760;52.588;13.406;2022-11-18T06:59:46;0.20;99.90
25963;DHT22;13760;52.588;13.406;2022-11-18T07:02:11;0.20;99.90
25963;DHT22;13760;52.588;13.406;2022-11-18T07:04:37;0.20;99.90
25963;DHT22;13760;52.588;13.406;2022-11-18T07:07:06;0.20;99.90
25963;DHT22;13760;52.588;13.406;2022-11-18T07:09:33;0.20;99.90
25963;DHT22;13760;52.588;13.406;2022-11-18T07:11:59;0.20;99.90
25963;DHT22;13760;52.588;13.406;2022-11-18T07:14:24;0.20;99.90
25963;DHT22;13760;52.588;13.406;2022-11-18T07:16:50;0.20;99.90
25963;DHT22;13760;52.588;13.406;2022-11-18T07:19:15;0.20;99.90
25963;DHT22;13760;52.588;13.406;2022-11-18T07:21:41;0.20;99.90
25963;DHT22;13760;52.588;13.406;2022-11-18T07:24:10;0.20;99.90
25963;DHT22;13760;52.588;13.406;2022-11-18T07:26:38;0.20;99.90
25963;DHT22;13760;52.588;13.406;2022-11-18T07:29:04;0.20;99.90
25963;DHT22;13760;52.588;13.406;2022-11-18T07:31:33;0.20;99.90
25963;DHT22;13760;52.588;13.406;2022-11-18T07:34:01;0.20;99.90
25963;DHT22;13760;52.588;13.406;2022-11-18T07:36:27;0.20;99.90
25963;DHT22;13760;52.588;13.406;2022-11-18T07:38:54;0.20;99.90
25963;DHT22;13760;52.588;13.406;2022-11-18T07:41:22;0.20;99.90
25963;DHT22;13760;52.588;13.406;2022-11-18T07:43:50;0.20;99.90
25963;DHT22;13760;52.588;13.406;2022-11-18T07:46:17;0.20;99.90
25963;DHT22;13760;52.588;13.406;2022-11-18T07:48:44;0.20;99.90
25963;DHT22;13760;52.588;13.406;2022-11-18T07:51:10;0.20;99.90
25963;DHT22;13760;52.588;13.406;2022-11-18T07:53:36;0.20;99.90
25963;DHT22;13760;52.588;13.406;2022-11-18T07:56:04;0.20;99.90
25963;DHT22;13760;52.588;13.406;2022-11-18T07:58:29;0.20;99.90
25963;DHT22;13760;52.588;13.406;2022-11-18T08:00:55;0.20;99.90
25963;DHT22;13760;52.588;13.406;2022-11-18T08:03:27;0.30;99.90
25963;DHT22;13760;52.588;13.406;2022-11-18T08:05:57;0.20;99.90
25963;DHT22;13760;52.588;13.406;2022-11-18T08:08:23;0.30;99.90
25963;DHT22;13760;52.588;13.406;2022-11-18T08:10:49;0.30;99.90
25963;DHT22;13760;52.588;13.406;2022-11-18T08:13:15;0.30;99.90
25963;DHT22;13760;52.588;13.406;2022-11-18T08:15:41;0.30;99.90
25963;DHT22;13760;52.588;13.406;2022-11-18T08:18:07;0.20;99.90
25963;DHT22;13760;52.588;13.406;2022-11-18T08:20:34;0.20;99.90
25963;DHT22;13760;52.588;13.406;2022-11-18T08:22:59;0.20;99.90
25963;DHT22;13760;52.588;13.406;2022-11-18T08:25:25;0.20;99.90
25963;DHT22;13760;52.588;13.406;2022-11-18T08:27:50;0.20;99.90
25963;DHT22;13760;52.588;13.406;2022-11-18T08:30:17;0.10;99.90
25963;DHT22;13760;52.588;13.406;2022-11-18T08:32:42;0.10;99.90
25963;DHT22;13760;52.588;13.406;2022-11-18T08:35:08;0.20;99.90
25963;DHT22;13760;52.588;13.406;2022-11-18T08:37:33;0.10;99.90
25963;DHT22;13760;52.588;13.406;2022-11-18T08:39:59;0.10;99.90
25963;DHT22;13760;52.588;13.406;2022-11-18T08:42:25;0.10;99.90
25963;DHT22;13760;52.588;13.406;2022-11-18T08:44:50;0.10;99.90
25963;DHT22;13760;52.588;13.406;2022-11-18T08:47:16;0.00;99.90
25963;DHT22;13760;52.588;13.406;2022-11-18T08:49:41;0.10;99.90
25963;DHT22;13760;52.588;13.406;2022-11-18T08:52:08;0.10;99.90
25963;DHT22;13760;52.588;13.406;2022-11-18T08:54:34;0.00;99.90
25963;DHT22;13760;52.588;13.406;2022-11-18T08:56:59;0.00;99.90
25963;DHT22;13760;52.588;13.406;2022-11-18T08:59:25;0.00;99.90
25963;DHT22;13760;52.588;13.406;2022-11-18T09:01:51;0.00;99.90
25963;DHT22;13760;52.588;13.406;2022-11-18T09:04:17;0.00;99.90
25963;DHT22;13760;52.588;13.406;2022-11-18T09:06:42;0.00;99.90
25963;DHT22;13760;52.588;13.406;2022-11-18T09:09:08;0.00;99.90
25963;DHT22;13760;52.588;13.406;2022-11-18T09:11:34;0.00;99.90
25963;DHT22;13760;52.588;13.406;2022-11-18T09:14:02;0.00;99.90
25963;DHT22;13760;52.588;13.406;2022-11-18T09:16:30;0.10;99.90
25963;DHT22;13760;52.588;13.406;2022-11-18T09:18:56;0.10;99.90
25963;DHT22;13760;52.588;13.406;2022-11-18T09:21:22;0.10;99.90
25963;DHT22;13760;52.588;13.406;2022-11-18T09:23:47;0.20;99.90
25963;DHT22;13760;52.588;13.406;2022-11-18T09:26:15;0.20;99.90
25963;DHT22;13760;52.588;13.406;2022-11-18T09:28:42;0.20;99.90
25963;DHT22;13760;52.588;13.406;2022-11-18T09:31:13;0.20;99.90
25963;DHT22;13760;52.588;13.406;2022-11-18T09:33:39;0.20;99.90
25963;DHT22;13760;52.588;13.406;2022-11-18T09:36:11;0.20;99.90
25963;DHT22;13760;52.588;13.406;2022-11-18T09:38:37;0.10;99.90
25963;DHT22;13760;52.588;13.406;2022-11-18T09:43:37;0.10;99.90
25963;DHT22;13760;52.588;13.406;2022-11-18T09:49:27;0.20;99.90
25963;DHT22;13760;52.588;13.406;2022-11-18T09:51:53;0.20;99.90
25963;DHT22;13760;52.588;13.406;2022-11-18T09:54:31;0.10;99.90
25963;DHT22;13760;52.588;13.406;2022-11-18T09:56:58;0.10;99.90
25963;DHT22;13760;52.588;13.406;2022-11-18T09:59:25;0.20;99.90
25963;DHT22;13760;52.588;13.406;2022-11-18T10:01:54;0.20;99.90
25963;DHT22;13760;52.588;13.406;2022-11-18T10:04:21;0.20;99.90
25963;DHT22;13760;52.588;13.406;2022-11-18T10:06:48;0.20;99.90
25963;DHT22;13760;52.588;13.406;2022-11-18T10:09:21;0.20;99.90
25963;DHT22;13760;52.588;13.406;2022-11-18T10:12:24;0.20;99.90
25963;DHT22;13760;52.588;13.406;2022-11-18T10:18:05;0.30;99.90
25963;DHT22;13760;52.588;13.406;2022-11-18T10:20:38;0.30;99.90
25963;DHT22;13760;52.588;13.406;2022-11-18T10:25:52;0.30;99.90
25963;DHT22;13760;52.588;13.406;2022-11-18T10:28:23;0.30;99.90
25963;DHT22;13760;52.588;13.406;2022-11-18T10:30:49;0.30;99.90
25963;DHT22;13760;52.588;13.406;2022-11-18T10:35:48;0.40;99.90
25963;DHT22;13760;52.588;13.406;2022-11-18T10:43:10;0.40;99.90
25963;DHT22;13760;52.588;13.406;2022-11-18T10:45:37;0.40;99.90
25963;DHT22;13760;52.588;13.406;2022-11-18T10:48:17;0.40;99.90
25963;DHT22;13760;52.588;13.406;2022-11-18T10:50:44;0.40;99.90
25963;DHT22;13760;52.588;13.406;2022-11-18T10:53:32;0.50;99.90
25963;DHT22;13760;52.588;13.406;2022-11-18T10:56:03;0.50;99.90
25963;DHT22;13760;52.588;13.406;2022-11-18T10:58:30;0.50;99.90
25963;DHT22;13760;52.588;13.406;2022-11-18T11:01:20;0.50;99.90
25963;DHT22;13760;52.588;13.406;2022-11-18T11:04:14;0.50;99.90
25963;DHT22;13760;52.588;13.406;2022-11-18T11:06:43;0.50;99.90
25963;DHT22;13760;52.588;13.406;2022-11-18T11:09:24;0.50;99.90
25963;DHT22;13760;52.588;13.406;2022-11-18T11:12:12;0.50;99.90
25963;DHT22;13760;52.588;13.406;2022-11-18T11:14:51;0.60;99.90
25963;DHT22;13760;52.588;13.406;2022-11-18T11:17:36;0.60;99.90
25963;DHT22;13760;52.588;13.406;2022-11-18T11:22:31;0.60;99.90
25963;DHT22;13760;52.588;13.406;2022-11-18T11:24:57;0.60;99.90
25963;DHT22;13760;52.588;13.406;2022-11-18T11:27:42;0.60;99.90
25963;DHT22;13760;52.588;13.406;2022-11-18T11:30:17;0.60;99.90
25963;DHT22;13760;52.588;13.406;2022-11-18T11:38:38;0.70;99.90
25963;DHT22;13760;52.588;13.406;2022-11-18T11:41:52;0.80;99.90
25963;DHT22;13760;52.588;13.406;2022-11-18T11:44:46;0.90;99.90
25963;DHT22;13760;52.588;13.406;2022-11-18T11:50:18;1.00;99.90
25963;DHT22;13760;52.588;13.406;2022-11-18T11:53:13;1.10;99.90
25963;DHT22;13760;52.588;13.406;2022-11-18T11:58:57;1.20;99.90
25963;DHT22;13760;52.588;13.406;2022-11-18T12:01:33;1.20;99.90
25963;DHT22;13760;52.588;13.406;2022-11-18T12:06:52;1.30;99.90
25963;DHT22;13760;52.588;13.406;2022-11-18T12:18:12;1.30;99.90
25963;DHT22;13760;52.588;13.406;2022-11-18T12:23:13;1.30;99.90
25963;DHT22;13760;52.588;13.406;2022-11-18T12:28:28;1.30;99.90
25963;DHT22;13760;52.588;13.406;2022-11-18T12:33:47;1.20;99.90
25963;DHT22;13760;52.588;13.406;2022-11-18T12:36:34;1.30;99.90
25963;DHT22;13760;52.588;13.406;2022-11-18T12:41:57;1.30;99.90
25963;DHT22;13760;52.588;13.406;2022-11-18T12:44:44;1.20;99.90
25963;DHT22;13760;52.588;13.406;2022-11-18T12:47:13;1.10;99.90
25963;DHT22;13760;52.588;13.406;2022-11-18T12:54:57;0.90;99.90
25963;DHT22;13760;52.588;13.406;2022-11-18T12:57:28;0.80;99.90
25963;DHT22;13760;52.588;13.406;2022-11-18T12:59:54;0.70;99.90
25963;DHT22;13760;52.588;13.406;2022-11-18T13:02:21;0.70;99.90
25963;DHT22;13760;52.588;13.406;2022-11-18T13:07:37;0.50;99.90
25963;DHT22;13760;52.588;13.406;2022-11-18T13:10:25;0.50;99.90
25963;DHT22;13760;52.588;13.406;2022-11-18T13:12:53;0.40;99.90
25963;DHT22;13760;52.588;13.406;2022-11-18T13:15:19;0.40;99.90
25963;DHT22;13760;52.588;13.406;2022-11-18T13:18:14;0.30;99.90
25963;DHT22;13760;52.588;13.406;2022-11-18T13:20:42;0.30;99.90
25963;DHT22;13760;52.588;13.406;2022-11-18T13:28:45;0.30;99.90
25963;DHT22;13760;52.588;13.406;2022-11-18T13:33:46;0.40;99.90
25963;DHT22;13760;52.588;13.406;2022-11-18T13:36:22;0.40;99.90
25963;DHT22;13760;52.588;13.406;2022-11-18T13:39:00;0.40;99.90
25963;DHT22;13760;52.588;13.406;2022-11-18T13:41:29;0.50;99.90
25963;DHT22;13760;52.588;13.406;2022-11-18T13:44:30;0.50;99.90
25963;DHT22;13760;52.588;13.406;2022-11-18T13:47:12;0.50;99.90
25963;DHT22;13760;52.588;13.406;2022-11-18T13:52:22;0.50;99.90
25963;DHT22;13760;52.588;13.406;2022-11-18T13:54:51;0.50;99.90
25963;DHT22;13760;52.588;13.406;2022-11-18T13:57:19;0.50;99.90
25963;DHT22;13760;52.588;13.406;2022-11-18T13:59:47;0.50;99.90
25963;DHT22;13760;52.588;13.406;2022-11-18T14:02:15;0.50;99.90
25963;DHT22;13760;52.588;13.406;2022-11-18T14:04:51;0.50;99.90
25963;DHT22;13760;52.588;13.406;2022-11-18T14:07:33;0.50;99.90
25963;DHT22;13760;52.588;13.406;2022-11-18T14:10:04;0.50;99.90
25963;DHT22;13760;52.588;13.406;2022-11-18T14:12:32;0.50;99.90
25963;DHT22;13760;52.588;13.406;2022-11-18T14:15:19;0.50;99.90
25963;DHT22;13760;52.588;13.406;2022-11-18T14:17:54;0.50;99.90
25963;DHT22;13760;52.588;13.406;2022-11-18T14:20:21;0.50;99.90
25963;DHT22;13760;52.588;13.406;2022-11-18T14:22:51;0.50;99.90
25963;DHT22;13760;52.588;13.406;2022-11-18T14:25:18;0.40;99.90
25963;DHT22;13760;52.588;13.406;2022-11-18T14:27:49;0.40;99.90
25963;DHT22;13760;52.588;13.406;2022-11-18T14:33:10;0.40;99.90
25963;DHT22;13760;52.588;13.406;2022-11-18T14:35:36;0.40;99.90
25963;DHT22;13760;52.588;13.406;2022-11-18T14:38:11;0.40;99.90
25963;DHT22;13760;52.588;13.406;2022-11-18T14:40:37;0.30;99.90
25963;DHT22;13760;52.588;13.406;2022-11-18T14:43:03;0.30;99.90
25963;DHT22;13760;52.588;13.406;2022-11-18T14:45:29;0.30;99.90
25963;DHT22;13760;52.588;13.406;2022-11-18T14:47:54;0.20;99.90
25963;DHT22;13760;52.588;13.406;2022-11-18T14:50:20;0.20;99.90
25963;DHT22;13760;52.588;13.406;2022-11-18T14:52:45;0.20;99.90
25963;DHT22;13760;52.588;13.406;2022-11-18T14:55:11;0.10;99.90
25963;DHT22;13760;52.588;13.406;2022-11-18T14:57:36;0.10;99.90
25963;DHT22;13760;52.588;13.406;2022-11-18T15:00:03;0.00;99.90
25963;DHT22;13760;52.588;13.406;2022-11-18T15:02:29;0.00;99.90
25963;DHT22;13760;52.588;13.406;2022-11-18T15:04:54;0.00;99.90
25963;DHT22;13760;52.588;13.406;2022-11-18T15:07:21;0.00;99.90
25963;DHT22;13760;52.588;13.406;2022-11-18T15:09:46;-0.10;99.90
25963;DHT22;13760;52.588;13.406;2022-11-18T15:12:12;-0.10;99.90
25963;DHT22;13760;52.588;13.406;2022-11-18T15:14:37;-0.20;99.90
25963;DHT22;13760;52.588;13.406;2022-11-18T15:17:03;-0.20;99.90
25963;DHT22;13760;52.588;13.406;2022-11-18T15:19:29;-0.20;99.90
25963;DHT22;13760;52.588;13.406;2022-11-18T15:21:55;-0.30;99.90
25963;DHT22;13760;52.588;13.406;2022-11-18T15:24:21;-0.30;99.90
25963;DHT22;13760;52.588;13.406;2022-11-18T15:26:47;-0.30;99.90
25963;DHT22;13760;52.588;13.406;2022-11-18T15:29:18;-0.40;99.90
25963;DHT22;13760;52.588;13.406;2022-11-18T15:31:44;-0.40;99.90
25963;DHT22;13760;52.588;13.406;2022-11-18T15:34:10;-0.40;99.90
25963;DHT22;13760;52.588;13.406;2022-11-18T15:36:36;-0.50;99.90
25963;DHT22;13760;52.588;13.406;2022-11-18T15:39:01;-0.50;99.90
25963;DHT22;13760;52.588;13.406;2022-11-18T15:41:28;-0.60;99.90
25963;DHT22;13760;52.588;13.406;2022-11-18T15:47:01;-0.60;99.90
25963;DHT22;13760;52.588;13.406;2022-11-18T15:49:27;-0.70;99.90
25963;DHT22;13760;52.588;13.406;2022-11-18T15:51:53;-0.70;99.90
25963;DHT22;13760;52.588;13.406;2022-11-18T15:54:18;-0.80;99.90
25963;DHT22;13760;52.588;13.406;2022-11-18T15:56:44;-0.90;99.90
25963;DHT22;13760;52.588;13.406;2022-11-18T15:59:11;-0.90;99.90
25963;DHT22;13760;52.588;13.406;2022-11-18T16:01:39;-0.90;99.90
25963;DHT22;13760;52.588;13.406;2022-11-18T16:04:06;-1.00;99.90
25963;DHT22;13760;52.588;13.406;2022-11-18T16:06:33;-1.00;99.90
25963;DHT22;13760;52.588;13.406;2022-11-18T16:08:59;-1.00;99.90
25963;DHT22;13760;52.588;13.406;2022-11-18T16:11:25;-1.20;99.90
25963;DHT22;13760;52.588;13.406;2022-11-18T16:14:13;-1.20;99.90
25963;DHT22;13760;52.588;13.406;2022-11-18T16:16:40;-1.30;99.90
25963;DHT22;13760;52.588;13.406;2022-11-18T16:19:09;-1.30;99.90
25963;DHT22;13760;52.588;13.406;2022-11-18T16:21:37;-1.40;99.90
25963;DHT22;13760;52.588;13.406;2022-11-18T16:24:04;-1.40;99.90
25963;DHT22;13760;52.588;13.406;2022-11-18T16:26:31;-1.50;99.90
25963;DHT22;13760;52.588;13.406;2022-11-18T16:28:58;-1.50;99.90
25963;DHT22;13760;52.588;13.406;2022-11-18T16:31:24;-1.50;99.90
25963;DHT22;13760;52.588;13.406;2022-11-18T16:34:15;-1.60;99.90
25963;DHT22;13760;52.588;13.406;2022-11-18T16:36:46;-1.60;99.90
25963;DHT22;13760;52.588;13.406;2022-11-18T16:39:14;-1.70;99.90
25963;DHT22;13760;52.588;13.406;2022-11-18T16:41:41;-1.70;99.90
25963;DHT22;13760;52.588;13.406;2022-11-18T16:44:12;-1.80;99.90
25963;DHT22;13760;52.588;13.406;2022-11-18T16:46:41;-1.80;99.90
25963;DHT22;13760;52.588;13.406;2022-11-18T16:49:10;-1.80;99.90
25963;DHT22;13760;52.588;13.406;2022-11-18T16:51:40;-1.90;99.90
25963;DHT22;13760;52.588;13.406;2022-11-18T16:54:16;-1.90;99.90
25963;DHT22;13760;52.588;13.406;2022-11-18T16:56:42;-2.00;99.90
25963;DHT22;13760;52.588;13.406;2022-11-18T16:59:16;-2.00;99.90
25963;DHT22;13760;52.588;13.406;2022-11-18T17:01:45;-2.00;99.90
25963;DHT22;13760;52.588;13.406;2022-11-18T17:04:14;-2.10;99.90
25963;DHT22;13760;52.588;13.406;2022-11-18T17:06:40;-2.10;99.90
25963;DHT22;13760;52.588;13.406;2022-11-18T17:09:06;-2.10;99.90
25963;DHT22;13760;52.588;13.406;2022-11-18T17:11:32;-2.10;99.90
25963;DHT22;13760;52.588;13.406;2022-11-18T17:13:57;-2.20;99.90
25963;DHT22;13760;52.588;13.406;2022-11-18T17:16:24;-2.20;99.90
25963;DHT22;13760;52.588;13.406;2022-11-18T17:18:57;-2.20;99.90
25963;DHT22;13760;52.588;13.406;2022-11-18T17:21:23;-2.30;99.90
25963;DHT22;13760;52.588;13.406;2022-11-18T17:23:49;-2.30;99.90
25963;DHT22;13760;52.588;13.406;2022-11-18T17:26:18;-2.30;99.90
25963;DHT22;13760;52.588;13.406;2022-11-18T17:28:45;-2.30;99.90
25963;DHT22;13760;52.588;13.406;2022-11-18T17:31:12;-2.30;99.90